• Join FlightAware (Why Join?)
  • Login
  • US Flag 
Gobble Gobble! 
02:38PM EST


 

Airport Tracker/Info


-or-


 

Live Flight TrackerFlight Track Log ✈ AAL1326 ✈ 29-Aug-2013 ✈ KSEA - KDFW

Flight Track Log - Related Links

Times and Time Zones

All times are in EDT time to prevent confusion due to time zone crossing. See the AAL1326 flight status page for this flight to view local times or setup timezone preferences in your user account.

Time Position Orientation Groundspeed Altitude Reporting Facility
EDT Latitude Longitude Course Direction KTS MPH feet Rate Location/Type
12:46PM 47.4378 -122.3122 173° South 163 188 1,100  Level Seattle Center
12:47PM 47.3933 -122.3042 173° South 164 189 3,100 2,340 Climbing Seattle Center
12:48PM 47.3253 -122.3044 180° South 239 275 5,800 3,120 Climbing Seattle Center
12:49PM 47.2542 -122.3053 180° South 253 291 9,500 3,000 Climbing Seattle Center
12:50PM 47.1864 -122.3022 178° South 246 283 12,000 1,860 Climbing Seattle Center
12:51PM 47.1036 -122.2972 178° South 283 326 13,400 1,740 Climbing Seattle Center
12:52PM 47.0194 -122.2547 161° South 326 375 15,600 2,160 Climbing Seattle Center
12:53PM 46.9397 -122.2008 155° Southeast 341 392 17,800 2,160 Climbing Seattle Center
12:54PM 46.8481 -122.1408 156° South 356 410 20,000 2,040 Climbing Seattle Center
12:55PM 46.7569 -122.0717 153° Southeast 369 425 22,100 1,920 Climbing Seattle Center
12:56PM 46.6631 -122.0039 154° Southeast 383 441 24,000 1,920 Climbing Seattle Center
12:57PM 46.5636 -121.8781 139° Southeast 398 458 26,100 1,740 Climbing Seattle Center
12:58PM 46.4972 -121.7378 124° Southeast 417 480 27,600 1,440 Climbing Seattle Center
12:59PM 46.4147 -121.6161 135° Southeast 429 494 29,100 1,500 Climbing Seattle Center
01:00PM 46.3375 -121.4794 129° Southeast 439 505 30,700 1,560 Climbing Seattle Center
01:01PM 46.2922 -121.3106 111° Southeast 450 518 32,400 1,560 Climbing Seattle Center
01:02PM 46.2369 -121.1531 117° Southeast 440 506 33,900 1,200 Climbing Seattle Center
01:03PM 46.1794 -120.9972 118° Southeast 441 507 34,900 1,200 Climbing Seattle Center
01:04PM 46.1214 -120.8411 118° Southeast 442 509 36,400 1,140 Climbing Seattle Center
01:05PM 46.0636 -120.6853 118° Southeast 443 510 37,300 780 Climbing Seattle Center
01:06PM 46.0047 -120.5278 118° Southeast 445 512 38,100 660 Climbing Seattle Center
01:07PM 45.9456 -120.3722 119° Southeast 444 511 38,700 480 Climbing Seattle Center
01:08PM 45.8731 -120.1819 119° Southeast 453 521 39,100 180 Climbing Seattle Center
01:09PM 45.8128 -120.0236 119° Southeast 452 520 39,100  Level Seattle Center
01:10PM 45.7514 -119.8664 119° Southeast 453 521 39,100  Level Seattle Center
01:11PM 45.6903 -119.7086 119° Southeast 452 520 39,100  Level Seattle Center
01:12PM 45.6281 -119.5517 120° Southeast 451 519 39,100  Level Seattle Center
01:13PM 45.5658 -119.3925 119° Southeast 456 525 39,100  Level Seattle Center
01:14PM 45.5033 -119.2339 119° Southeast 457 526 39,100  Level Seattle Center
01:15PM 45.4403 -119.0767 120° Southeast 457 526 39,100  Level Seattle Center
01:16PM 45.3767 -118.9164 119° Southeast 462 532 39,100  Level Seattle Center
01:17PM 45.3122 -118.7578 120° Southeast 463 533 39,100  Level Seattle Center
01:18PM 45.2475 -118.5981 120° Southeast 465 535 39,100  Level Seattle Center
01:19PM 45.1828 -118.4392 120° Southeast 465 535 39,100  Level Seattle Center
01:20PM 45.1178 -118.2806 120° Southeast 465 535 39,100  Level Seattle Center
01:21PM 45.0400 -118.0939 120° Southeast 462 532 39,100  Level Seattle Center
01:22PM 44.9781 -117.9367 119° Southeast 459 528 39,100  Level Seattle Center
01:23PM 44.9125 -117.7797 120° Southeast 461 531 39,100  Level Seattle Center
01:24PM 44.8556 -117.6522 122° Southeast 467 537 39,100  Level Salt Lake Center
01:25PM 44.7764 -117.4653 121° Southeast 467 537 39,100  Level Salt Lake Center
01:26PM 44.7119 -117.3111 120° Southeast 460 529 39,100  Level Salt Lake Center
01:27PM 44.6422 -117.1572 122° Southeast 465 535 39,100  Level Salt Lake Center
01:28PM 44.5753 -117.0031 121° Southeast 465 535 39,100  Level Salt Lake Center
01:30PM 44.5103 -116.8494 121° Southeast 461 531 39,100  Level Salt Lake Center
01:31PM 44.4447 -116.6958 121° Southeast 460 529 39,100  Level Salt Lake Center
01:32PM 44.3642 -116.5111 121° Southeast 465 535 39,100  Level Salt Lake Center
01:33PM 44.2972 -116.3592 122° Southeast 463 533 39,100  Level Salt Lake Center
01:34PM 44.2308 -116.2061 121° Southeast 461 531 39,100  Level Salt Lake Center
01:35PM 44.1567 -116.0314 121° Southeast 465 535 39,100  Level Salt Lake Center
01:36PM 44.0919 -115.8850 122° Southeast 462 532 39,100  Level Salt Lake Center
01:37PM 44.0231 -115.7289 121° Southeast 456 525 39,100  Level Salt Lake Center
01:38PM 43.9528 -115.5725 122° Southeast 458 527 39,100  Level Salt Lake Center
01:39PM 43.8819 -115.4128 122° Southeast 463 533 39,100  Level Salt Lake Center
01:40PM 43.8111 -115.2553 122° Southeast 461 531 39,100  Level Salt Lake Center
01:41PM 43.7456 -115.1122 122° Southeast 459 528 39,100  Level Salt Lake Center
01:42PM 43.6744 -114.9550 122° Southeast 460 529 39,100  Level Salt Lake Center
01:43PM 43.6028 -114.7994 122° Southeast 460 529 39,100  Level Salt Lake Center
01:44PM 43.5303 -114.6439 123° Southeast 463 533 39,100  Level Salt Lake Center
01:45PM 43.4606 -114.4947 123° Southeast 467 537 39,100  Level Salt Lake Center
01:46PM 43.3847 -114.3283 122° Southeast 465 535 39,100  Level Salt Lake Center
01:47PM 43.3150 -114.1828 123° Southeast 471 542 39,100  Level Salt Lake Center
01:48PM 43.2411 -114.0256 123° Southeast 472 543 39,100  Level Salt Lake Center
01:49PM 43.1672 -113.8689 123° Southeast 475 547 39,100  Level Salt Lake Center
01:50PM 43.0983 -113.7228 123° Southeast 476 548 39,100  Level Salt Lake Center
01:51PM 43.0169 -113.5547 123° Southeast 476 548 39,100  Level Salt Lake Center
01:52PM 42.9481 -113.4089 123° Southeast 477 549 39,100  Level Salt Lake Center
01:53PM 42.8667 -113.2414 124° Southeast 476 548 39,100  Level Salt Lake Center
01:54PM 42.7981 -113.0986 123° Southeast 474 545 39,100  Level Salt Lake Center
01:55PM 42.7161 -112.9317 124° Southeast 475 547 39,100  Level Salt Lake Center
01:56PM 42.6461 -112.7900 124° Southeast 470 541 39,100  Level Salt Lake Center
01:57PM 42.5739 -112.6417 123° Southeast 470 541 39,100  Level Salt Lake Center
01:58PM 42.5017 -112.4956 124° Southeast 469 540 39,100  Level Salt Lake Center
02:00PM 42.4139 -112.3231 125° Southeast 466 536 39,100  Level Salt Lake Center
02:01PM 42.3406 -112.1806 125° Southeast 463 533 39,100  Level Salt Lake Center
02:02PM 42.2664 -112.0378 125° Southeast 463 533 39,100  Level Salt Lake Center
02:03PM 42.1936 -111.8956 125° Southeast 463 533 39,100  Level Salt Lake Center
02:04PM 42.1194 -111.7511 125° Southeast 466 536 39,100  Level Salt Lake Center
02:05PM 42.0442 -111.6075 125° Southeast 468 539 39,100  Level Salt Lake Center
02:06PM 41.9694 -111.4633 125° Southeast 468 539 39,100  Level Salt Lake Center
02:07PM 41.8786 -111.2908 125° Southeast 471 542 39,100  Level Salt Lake Center
02:08PM 41.8022 -111.1444 125° Southeast 475 547 39,100  Level Salt Lake Center
02:09PM 41.7267 -110.9994 125° Southeast 475 547 39,100  Level Salt Lake Center
02:10PM 41.6522 -110.8581 125° Southeast 477 549 39,100  Level Salt Lake Center
02:11PM 41.5664 -110.6969 125° Southeast 477 549 39,100  Level Salt Lake Center
02:12PM 41.4936 -110.5586 125° Southeast 477 549 39,100  Level Salt Lake Center
02:13PM 41.4075 -110.3989 126° Southeast 477 549 39,100  Level Salt Lake Center
02:14PM 41.3336 -110.2636 126° Southeast 475 547 39,100  Level Salt Lake Center
02:15PM 41.2481 -110.1044 126° Southeast 475 547 39,100  Level Salt Lake Center
02:16PM 41.1761 -109.9675 125° Southeast 474 545 39,100  Level Salt Lake Center
02:17PM 41.0908 -109.8111 126° Southeast 472 543 39,100  Level Salt Lake Center
02:18PM 41.0178 -109.6778 126° Southeast 471 542 39,100  Level Salt Lake Center
02:19PM 40.9331 -109.5219 126° Southeast 469 540 39,100  Level Salt Lake Center
02:20PM 40.8614 -109.3889 125° Southeast 467 537 39,100  Level Salt Lake Center
02:21PM 40.7797 -109.2394 126° Southeast 470 541 39,100  Level Salt Lake Center
02:22PM 40.7033 -109.1014 126° Southeast 467 537 39,100  Level Salt Lake Center
02:23PM 40.6186 -108.9497 126° Southeast 464 534 39,100  Level Salt Lake Center
02:24PM 40.5444 -108.8192 127° Southeast 466 536 39,100  Level Salt Lake Center
02:25PM 40.4581 -108.6667 127° Southeast 466 536 39,100  Level Salt Lake Center
02:26PM 40.3847 -108.5339 126° Southeast 469 540 39,100  Level Salt Lake Center
02:27PM 40.2972 -108.3828 127° Southeast 468 539 39,100  Level Salt Lake Center
02:28PM 40.2247 -108.2522 126° Southeast 465 535 39,100  Level Salt Lake Center
02:30PM 40.1369 -108.0994 127° Southeast 468 539 39,100  Level Salt Lake Center
02:31PM 40.0600 -107.9694 128° Southeast 472 543 39,100  Level Salt Lake Center
02:32PM 39.9469 -107.7731 127° Southeast 467 537 39,100  Level Denver Center
02:33PM 39.8719 -107.6444 127° Southeast 465 535 39,100  Level Denver Center
02:34PM 39.7831 -107.4944 128° Southeast 465 535 39,100  Level Denver Center
02:35PM 39.7203 -107.3875 127° Southeast 467 537 39,100  Level Denver Center
02:36PM 39.6183 -107.2197 128° Southeast 462 532 39,100  Level Denver Center
02:37PM 39.5422 -107.0889 127° Southeast 468 539 39,100  Level Denver Center
02:38PM 39.4753 -106.9850 130° Southeast 478 550 39,100  Level Denver Center
02:39PM 39.3772 -106.8131 126° Southeast 464 534 39,100  Level Denver Center
02:40PM 39.2867 -106.6628 128° Southeast 471 542 39,100  Level Denver Center
02:41PM 39.2100 -106.5364 128° Southeast 469 540 39,100  Level Denver Center
02:42PM 39.1331 -106.4100 128° Southeast 468 539 39,100  Level Denver Center
02:43PM 39.0414 -106.2636 129° Southeast 470 541 39,100  Level Denver Center
02:44PM 38.9619 -106.1331 128° Southeast 467 537 39,100  Level Denver Center
02:45PM 38.8814 -106.0044 129° Southeast 464 534 39,100  Level Denver Center
02:47PM 38.8022 -105.8750 128° Southeast 464 534 39,100  Level Denver Center
02:48PM 38.6889 -105.6947 129° Southeast 465 535 39,100  Level Denver Center
02:49PM 38.6094 -105.5667 128° Southeast 464 534 39,100  Level Denver Center
02:50PM 38.5292 -105.4389 129° Southeast 463 533 39,100  Level Denver Center
02:51PM 38.4322 -105.2861 129° Southeast 464 534 39,100  Level Denver Center
02:52PM 38.3381 -105.1386 129° Southeast 461 531 39,100  Level Denver Center
02:53PM 38.2611 -105.0189 129° Southeast 457 526 39,100  Level Denver Center
02:54PM 38.1708 -104.8769 129° Southeast 460 529 39,100  Level Denver Center
02:55PM 38.0933 -104.7567 129° Southeast 460 529 39,100  Level Denver Center
02:56PM 38.0161 -104.6347 129° Southeast 463 533 39,100  Level Denver Center
02:57PM 37.9253 -104.4936 129° Southeast 462 532 39,100  Level Denver Center
02:58PM 37.8475 -104.3750 130° Southeast 459 528 39,100  Level Denver Center
02:59PM 37.7569 -104.2356 129° Southeast 458 527 39,100  Level Denver Center
03:00PM 37.6794 -104.1169 130° Southeast 457 526 39,100  Level Denver Center
03:01PM 37.5936 -103.9642 125° Southeast 476 548 39,100  Level Denver Center
03:02PM 37.5061 -103.8481 134° Southeast 469 540 39,100  Level Denver Center
03:03PM 37.4267 -103.7294 130° Southeast 462 532 39,100  Level Denver Center
03:04PM 37.3356 -103.5931 130° Southeast 457 526 39,100  Level Denver Center
03:05PM 37.2572 -103.4756 130° Southeast 458 527 39,100  Level Denver Center
03:06PM 37.1792 -103.3589 130° Southeast 457 526 39,100  Level Albuquerque Center
03:08PM 37.0208 -103.1269 130° Southeast 456 525 39,100  Level Albuquerque Center
03:09PM 36.9292 -102.9908 130° Southeast 457 526 39,100  Level Albuquerque Center
03:10PM 36.8497 -102.8750 131° Southeast 458 527 39,100  Level Albuquerque Center
03:11PM 36.7569 -102.7397 131° Southeast 458 527 39,100  Level Albuquerque Center
03:12PM 36.6783 -102.6239 130° Southeast 458 527 39,100  Level Albuquerque Center
03:14PM 36.5992 -102.5072 130° Southeast 457 526 39,100  Level Albuquerque Center
03:15PM 36.5000 -102.3619 130° Southeast 459 528 39,100  Level Albuquerque Center
03:16PM 36.4178 -102.2428 131° Southeast 458 527 39,100  Level Albuquerque Center
03:17PM 36.3347 -102.1242 131° Southeast 455 524 39,100  Level Albuquerque Center
03:18PM 36.2517 -102.0056 131° Southeast 455 524 39,100  Level Albuquerque Center
03:19PM 36.1692 -101.8872 131° Southeast 454 522 39,100  Level Albuquerque Center
03:20PM 36.0867 -101.7692 131° Southeast 453 521 39,100  Level Albuquerque Center
03:21PM 36.0033 -101.6486 130° Southeast 457 526 39,100  Level Albuquerque Center
03:22PM 35.9181 -101.5303 132° Southeast 459 528 39,100  Level Albuquerque Center
03:23PM 35.8161 -101.3881 131° Southeast 459 528 39,100  Level Albuquerque Center
03:24PM 35.7353 -101.2639 129° Southeast 461 531 39,100  Level Albuquerque Center
03:25PM 35.6564 -101.1389 128° Southeast 461 531 39,100  Level Albuquerque Center
03:26PM 35.5778 -101.0128 127° Southeast 462 532 39,100  Level Albuquerque Center
03:27PM 35.4969 -100.8878 128° Southeast 464 534 39,100  Level Albuquerque Center
03:28PM 35.4167 -100.7614 128° Southeast 466 536 39,100  Level Albuquerque Center
03:29PM 35.3292 -100.6261 128° Southeast 468 539 39,100  Level Albuquerque Center
03:30PM 35.2478 -100.4989 128° Southeast 471 542 39,100  Level Albuquerque Center
03:31PM 35.1575 -100.3578 128° Southeast 470 541 39,100  Level Albuquerque Center
03:32PM 35.0861 -100.2475 128° Southeast 472 543 39,100  Level Albuquerque Center
03:33PM 34.9881 -100.0972 129° Southeast 472 543 39,100 -60 Level Albuquerque Center
03:34PM 34.9075 -99.9725 128° Southeast 470 541 39,000 -780 Descending Albuquerque Center
03:35PM 34.8267 -99.8478 128° Southeast 470 541 37,600 -1,440 Descending Albuquerque Center
03:36PM 34.7472 -99.7272 129° Southeast 462 532 36,100 -1,320 Descending Albuquerque Center
03:37PM 34.6667 -99.6050 129° Southeast 462 532 34,900 -540 Descending Albuquerque Center
03:38PM 34.5842 -99.4797 129° Southeast 470 541 35,000  Climbing Albuquerque Center
03:39PM 34.4983 -99.3461 128° Southeast 471 542 35,000  Level Fort Worth Center
03:40PM 34.4189 -99.2261 129° Southeast 471 542 35,000 -420 Level Fort Worth Center
03:41PM 34.3308 -99.1008 130° Southeast 456 525 34,200 -1,920 Descending Fort Worth Center
03:42PM 34.2469 -98.9811 130° Southeast 445 512 31,200 -2,760 Descending Fort Worth Center
03:43PM 34.1650 -98.8592 129° Southeast 462 532 28,700 -2,100 Descending Fort Worth Center
03:44PM 34.1033 -98.7656 128° Southeast 462 532 27,100 -1,740 Descending Fort Worth Center
03:45PM 34.0108 -98.6286 129° Southeast 439 505 25,300 -1,560 Descending Fort Worth Center
03:46PM 33.9450 -98.5228 127° Southeast 434 499 24,000 -660 Descending Fort Worth Center
03:47PM 33.8833 -98.4092 123° Southeast 427 491 24,000 -600 Level Fort Worth Center
03:48PM 33.8092 -98.2808 125° Southeast 420 483 22,800 -1,680 Descending Fort Worth Center
03:49PM 33.7453 -98.1728 125° Southeast 408 470 20,700 -2,100 Descending Fort Worth Center
03:50PM 33.6833 -98.0650 125° Southeast 400 460 18,700 -1,980 Descending Fort Worth Center
03:51PM 33.6275 -97.9697 125° Southeast 394 453 16,800 -1,920 Descending Fort Worth Center
03:52PM 33.5653 -97.8647 125° Southeast 387 445 14,900 -2,100 Descending Fort Worth Center
03:53PM 33.4903 -97.7647 132° Southeast 380 437 12,700 -1,800 Descending Fort Worth Center
03:54PM 33.4258 -97.6922 137° Southeast 358 412 11,300 -1,080 Descending Fort Worth Center
03:55PM 33.3572 -97.6125 136° Southeast 330 380 10,600 -1,080 Descending Fort Worth Center
03:57PM 33.3000 -97.5000 121° Southeast 283 326 8,900 -1,380 Descending Dallas / Fort Worth TRACON
03:58PM 33.2500 -97.4167 126° Southeast 283 326 7,300 -1,500 Descending Dallas / Fort Worth TRACON
03:59PM 33.2333 -97.3333 103° East 279 321 5,800 -1,200 Descending Dallas / Fort Worth TRACON
04:00PM 33.2000 -97.2500 116° Southeast 231 266 5,000 -420 Descending Dallas / Fort Worth TRACON
04:01PM 33.1667 -97.1833 121° Southeast 228 262 5,000 -480 Level Dallas / Fort Worth TRACON
04:02PM 33.1500 -97.1167 107° East 206 237 4,100 -960 Descending Dallas / Fort Worth TRACON
04:02PM 33.1336 -97.0983 137° Southeast 202 232 3,600 -720 Descending Fort Worth Center
04:03PM 33.1167 -97.0489 112° Southeast 185 213 3,000 -300 Descending Fort Worth Center
04:04PM 33.0750 -97.0267 156° South 153 176 3,100 -180 Climbing Fort Worth Center
04:05PM 33.0289 -97.0294 183° South 164 189 2,700 -660 Descending Fort Worth Center
04:06PM 32.9747 -97.0297 180° South 179 206 1,800 -840 Descending Fort Worth Center
04:07PM 32.9372 -97.0272 177° South 166 191 1,100 -720 Descending Fort Worth Center